sensor_id;sensor_type;location;lat;lon;timestamp;pressure;altitude;pressure_sealevel;temperature;humidity
34177;BME280;20450;49.074;9.158;2022-10-17T00:00:39;62450.84;;;-140.58;100.00
34177;BME280;20450;49.074;9.158;2022-10-17T00:03:07;62450.84;;;-140.58;100.00
34177;BME280;20450;49.074;9.158;2022-10-17T00:05:38;62450.84;;;-140.58;100.00
34177;BME280;20450;49.074;9.158;2022-10-17T00:08:05;62450.84;;;-140.58;100.00
34177;BME280;20450;49.074;9.158;2022-10-17T00:10:33;62450.84;;;-140.58;100.00
34177;BME280;20450;49.074;9.158;2022-10-17T00:12:59;62450.84;;;-140.58;100.00
34177;BME280;20450;49.074;9.158;2022-10-17T00:15:26;62450.84;;;-140.58;100.00
34177;BME280;20450;49.074;9.158;2022-10-17T00:17:56;62450.84;;;-140.58;100.00
34177;BME280;20450;49.074;9.158;2022-10-17T00:20:24;62450.84;;;-140.58;100.00
34177;BME280;20450;49.074;9.158;2022-10-17T00:22:51;62450.84;;;-140.58;100.00
34177;BME280;20450;49.074;9.158;2022-10-17T00:25:18;62450.84;;;-140.58;100.00
34177;BME280;20450;49.074;9.158;2022-10-17T00:27:45;62450.84;;;-140.58;100.00
34177;BME280;20450;49.074;9.158;2022-10-17T00:30:15;62450.84;;;-140.58;100.00
34177;BME280;20450;49.074;9.158;2022-10-17T00:32:42;62450.84;;;-140.58;100.00
34177;BME280;20450;49.074;9.158;2022-10-17T00:35:11;62450.84;;;-140.58;100.00
34177;BME280;20450;49.074;9.158;2022-10-17T00:37:38;62450.84;;;-140.58;100.00
34177;BME280;20450;49.074;9.158;2022-10-17T00:40:06;62450.84;;;-140.58;100.00
34177;BME280;20450;49.074;9.158;2022-10-17T00:42:34;62450.84;;;-140.58;100.00
34177;BME280;20450;49.074;9.158;2022-10-17T00:45:12;62450.84;;;-140.58;100.00
34177;BME280;20450;49.074;9.158;2022-10-17T00:47:44;62450.84;;;-140.58;100.00
34177;BME280;20450;49.074;9.158;2022-10-17T00:50:16;62450.84;;;-140.58;100.00
34177;BME280;20450;49.074;9.158;2022-10-17T00:52:45;62450.84;;;-140.58;100.00
34177;BME280;20450;49.074;9.158;2022-10-17T00:55:16;62450.84;;;-140.58;100.00
34177;BME280;20450;49.074;9.158;2022-10-17T00:57:47;62450.84;;;-140.58;100.00
34177;BME280;20450;49.074;9.158;2022-10-17T01:00:16;62450.84;;;-140.58;100.00
34177;BME280;20450;49.074;9.158;2022-10-17T01:02:44;62450.84;;;-140.58;100.00
34177;BME280;20450;49.074;9.158;2022-10-17T01:05:11;62450.84;;;-140.58;100.00
34177;BME280;20450;49.074;9.158;2022-10-17T01:07:43;62450.84;;;-140.58;100.00
34177;BME280;20450;49.074;9.158;2022-10-17T01:10:12;62450.84;;;-140.58;100.00
34177;BME280;20450;49.074;9.158;2022-10-17T01:12:51;62450.84;;;-140.58;100.00
34177;BME280;20450;49.074;9.158;2022-10-17T01:15:37;62450.84;;;-140.58;100.00
34177;BME280;20450;49.074;9.158;2022-10-17T01:18:23;62450.84;;;-140.58;100.00
34177;BME280;20450;49.074;9.158;2022-10-17T01:21:19;62450.84;;;-140.58;100.00
34177;BME280;20450;49.074;9.158;2022-10-17T01:24:31;62450.84;;;-140.58;100.00
34177;BME280;20450;49.074;9.158;2022-10-17T01:27:49;62450.84;;;-140.58;100.00
34177;BME280;20450;49.074;9.158;2022-10-17T01:30:48;62450.84;;;-140.58;100.00
34177;BME280;20450;49.074;9.158;2022-10-17T01:33:46;62450.84;;;-140.58;100.00
34177;BME280;20450;49.074;9.158;2022-10-17T01:36:34;62450.84;;;-140.58;100.00
34177;BME280;20450;49.074;9.158;2022-10-17T01:39:13;62450.84;;;-140.58;100.00
34177;BME280;20450;49.074;9.158;2022-10-17T01:41:50;62450.84;;;-140.58;100.00
34177;BME280;20450;49.074;9.158;2022-10-17T01:44:25;62450.84;;;-140.58;100.00
34177;BME280;20450;49.074;9.158;2022-10-17T01:47:03;62450.84;;;-140.58;100.00
34177;BME280;20450;49.074;9.158;2022-10-17T01:49:34;62450.84;;;-140.58;100.00
34177;BME280;20450;49.074;9.158;2022-10-17T01:52:09;62450.84;;;-140.58;100.00
34177;BME280;20450;49.074;9.158;2022-10-17T01:54:41;62450.84;;;-140.58;100.00
34177;BME280;20450;49.074;9.158;2022-10-17T01:57:19;62450.84;;;-140.58;100.00
34177;BME280;20450;49.074;9.158;2022-10-17T01:59:51;62450.84;;;-140.58;100.00
34177;BME280;20450;49.074;9.158;2022-10-17T02:02:24;62450.84;;;-140.58;100.00
34177;BME280;20450;49.074;9.158;2022-10-17T02:04:54;62450.84;;;-140.58;100.00
34177;BME280;20450;49.074;9.158;2022-10-17T02:07:22;62450.84;;;-140.58;100.00
34177;BME280;20450;49.074;9.158;2022-10-17T02:09:49;62450.84;;;-140.58;100.00
34177;BME280;20450;49.074;9.158;2022-10-17T02:12:36;62450.84;;;-140.58;100.00
34177;BME280;20450;49.074;9.158;2022-10-17T02:15:27;62450.84;;;-140.58;100.00
34177;BME280;20450;49.074;9.158;2022-10-17T02:18:16;62450.84;;;-140.58;100.00
34177;BME280;20450;49.074;9.158;2022-10-17T02:20:56;62450.84;;;-140.58;100.00
34177;BME280;20450;49.074;9.158;2022-10-17T02:23:36;62450.84;;;-140.58;100.00
34177;BME280;20450;49.074;9.158;2022-10-17T02:26:18;62450.84;;;-140.58;100.00
34177;BME280;20450;49.074;9.158;2022-10-17T02:29:01;62450.84;;;-140.58;100.00
34177;BME280;20450;49.074;9.158;2022-10-17T02:31:37;62450.84;;;-140.58;100.00
34177;BME280;20450;49.074;9.158;2022-10-17T02:34:12;62450.84;;;-140.58;100.00
34177;BME280;20450;49.074;9.158;2022-10-17T02:36:50;62450.84;;;-140.58;100.00
34177;BME280;20450;49.074;9.158;2022-10-17T02:39:22;62450.84;;;-140.58;100.00
34177;BME280;20450;49.074;9.158;2022-10-17T02:41:55;62450.84;;;-140.58;100.00
34177;BME280;20450;49.074;9.158;2022-10-17T02:44:25;62450.84;;;-140.58;100.00
34177;BME280;20450;49.074;9.158;2022-10-17T02:46:58;62450.84;;;-140.58;100.00
34177;BME280;20450;49.074;9.158;2022-10-17T02:49:37;62450.84;;;-140.58;100.00
34177;BME280;20450;49.074;9.158;2022-10-17T02:52:11;62450.84;;;-140.58;100.00
34177;BME280;20450;49.074;9.158;2022-10-17T02:54:47;62450.84;;;-140.58;100.00
34177;BME280;20450;49.074;9.158;2022-10-17T02:57:22;62450.84;;;-140.58;100.00
34177;BME280;20450;49.074;9.158;2022-10-17T02:59:54;62450.84;;;-140.58;100.00
34177;BME280;20450;49.074;9.158;2022-10-17T03:02:24;62450.84;;;-140.58;100.00
34177;BME280;20450;49.074;9.158;2022-10-17T03:04:53;62450.84;;;-140.58;100.00
34177;BME280;20450;49.074;9.158;2022-10-17T03:07:20;62450.84;;;-140.58;100.00
34177;BME280;20450;49.074;9.158;2022-10-17T03:09:47;62450.84;;;-140.58;100.00
34177;BME280;20450;49.074;9.158;2022-10-17T03:12:14;62450.84;;;-140.58;100.00
34177;BME280;20450;49.074;9.158;2022-10-17T03:14:41;62450.84;;;-140.58;100.00
34177;BME280;20450;49.074;9.158;2022-10-17T03:17:08;62450.84;;;-140.58;100.00
34177;BME280;20450;49.074;9.158;2022-10-17T03:19:35;62450.84;;;-140.58;100.00
34177;BME280;20450;49.074;9.158;2022-10-17T03:22:03;62450.84;;;-140.58;100.00
34177;BME280;20450;49.074;9.158;2022-10-17T03:24:32;62450.84;;;-140.58;100.00
34177;BME280;20450;49.074;9.158;2022-10-17T03:26:59;62450.84;;;-140.58;100.00
34177;BME280;20450;49.074;9.158;2022-10-17T03:29:26;62450.84;;;-140.58;100.00
34177;BME280;20450;49.074;9.158;2022-10-17T03:31:53;62450.84;;;-140.58;100.00
34177;BME280;20450;49.074;9.158;2022-10-17T03:34:20;62450.84;;;-140.58;100.00
34177;BME280;20450;49.074;9.158;2022-10-17T03:36:48;62450.84;;;-140.58;100.00
34177;BME280;20450;49.074;9.158;2022-10-17T03:39:16;62450.84;;;-140.58;100.00
34177;BME280;20450;49.074;9.158;2022-10-17T03:41:43;62450.84;;;-140.58;100.00
34177;BME280;20450;49.074;9.158;2022-10-17T03:44:10;62450.84;;;-140.58;100.00
34177;BME280;20450;49.074;9.158;2022-10-17T03:46:37;62450.84;;;-140.58;100.00
34177;BME280;20450;49.074;9.158;2022-10-17T03:49:05;62450.84;;;-140.58;100.00
34177;BME280;20450;49.074;9.158;2022-10-17T03:51:32;62450.84;;;-140.58;100.00
34177;BME280;20450;49.074;9.158;2022-10-17T03:54:03;62450.84;;;-140.58;100.00
34177;BME280;20450;49.074;9.158;2022-10-17T03:56:31;62450.84;;;-140.58;100.00
34177;BME280;20450;49.074;9.158;2022-10-17T03:59:02;62450.84;;;-140.58;100.00
34177;BME280;20450;49.074;9.158;2022-10-17T04:01:32;62450.84;;;-140.58;100.00
34177;BME280;20450;49.074;9.158;2022-10-17T04:03:59;62450.84;;;-140.58;100.00
34177;BME280;20450;49.074;9.158;2022-10-17T04:06:29;62450.84;;;-140.58;100.00
34177;BME280;20450;49.074;9.158;2022-10-17T04:08:58;62450.84;;;-140.58;100.00
34177;BME280;20450;49.074;9.158;2022-10-17T04:11:37;62450.84;;;-140.58;100.00
34177;BME280;20450;49.074;9.158;2022-10-17T04:14:04;62450.84;;;-140.58;100.00
34177;BME280;20450;49.074;9.158;2022-10-17T04:16:31;62450.84;;;-140.58;100.00
34177;BME280;20450;49.074;9.158;2022-10-17T04:19:02;62450.84;;;-140.58;100.00
34177;BME280;20450;49.074;9.158;2022-10-17T04:21:34;62450.84;;;-140.58;100.00
34177;BME280;20450;49.074;9.158;2022-10-17T04:24:05;62450.84;;;-140.58;100.00
34177;BME280;20450;49.074;9.158;2022-10-17T04:26:43;62450.84;;;-140.58;100.00
34177;BME280;20450;49.074;9.158;2022-10-17T04:29:11;62450.84;;;-140.58;100.00
34177;BME280;20450;49.074;9.158;2022-10-17T04:31:40;62450.84;;;-140.58;100.00
34177;BME280;20450;49.074;9.158;2022-10-17T04:34:16;62450.84;;;-140.58;100.00
34177;BME280;20450;49.074;9.158;2022-10-17T04:36:43;62450.84;;;-140.58;100.00
34177;BME280;20450;49.074;9.158;2022-10-17T04:39:10;62450.84;;;-140.58;100.00
34177;BME280;20450;49.074;9.158;2022-10-17T04:41:37;62450.84;;;-140.58;100.00
34177;BME280;20450;49.074;9.158;2022-10-17T04:44:05;62450.84;;;-140.58;100.00
34177;BME280;20450;49.074;9.158;2022-10-17T04:46:37;62450.84;;;-140.58;100.00
34177;BME280;20450;49.074;9.158;2022-10-17T04:49:04;62450.84;;;-140.58;100.00
34177;BME280;20450;49.074;9.158;2022-10-17T04:51:32;62450.84;;;-140.58;100.00
34177;BME280;20450;49.074;9.158;2022-10-17T04:54:25;62450.84;;;-140.58;100.00
34177;BME280;20450;49.074;9.158;2022-10-17T04:57:00;62450.84;;;-140.58;100.00
34177;BME280;20450;49.074;9.158;2022-10-17T04:59:29;62450.84;;;-140.58;100.00
34177;BME280;20450;49.074;9.158;2022-10-17T05:02:11;62450.84;;;-140.58;100.00
34177;BME280;20450;49.074;9.158;2022-10-17T05:04:38;62450.84;;;-140.58;100.00
34177;BME280;20450;49.074;9.158;2022-10-17T05:07:07;62450.84;;;-140.58;100.00
34177;BME280;20450;49.074;9.158;2022-10-17T05:14:25;62450.84;;;-140.58;100.00
34177;BME280;20450;49.074;9.158;2022-10-17T05:17:55;62450.84;;;-140.58;100.00
34177;BME280;20450;49.074;9.158;2022-10-17T05:20:26;62450.84;;;-140.58;100.00
34177;BME280;20450;49.074;9.158;2022-10-17T05:22:53;62450.84;;;-140.58;100.00
34177;BME280;20450;49.074;9.158;2022-10-17T05:25:21;62450.84;;;-140.58;100.00
34177;BME280;20450;49.074;9.158;2022-10-17T05:27:48;62450.84;;;-140.58;100.00
34177;BME280;20450;49.074;9.158;2022-10-17T05:30:16;62450.84;;;-140.58;100.00
34177;BME280;20450;49.074;9.158;2022-10-17T05:32:44;62450.84;;;-140.58;100.00
34177;BME280;20450;49.074;9.158;2022-10-17T05:35:12;62450.84;;;-140.58;100.00
34177;BME280;20450;49.074;9.158;2022-10-17T05:37:41;62450.84;;;-140.58;100.00
34177;BME280;20450;49.074;9.158;2022-10-17T05:40:27;62450.84;;;-140.58;100.00
34177;BME280;20450;49.074;9.158;2022-10-17T05:43:13;62450.84;;;-140.58;100.00
34177;BME280;20450;49.074;9.158;2022-10-17T05:45:41;62450.84;;;-140.58;100.00
34177;BME280;20450;49.074;9.158;2022-10-17T05:48:12;62450.84;;;-140.58;100.00
34177;BME280;20450;49.074;9.158;2022-10-17T05:50:40;62450.84;;;-140.58;100.00
34177;BME280;20450;49.074;9.158;2022-10-17T05:53:12;62450.84;;;-140.58;100.00
34177;BME280;20450;49.074;9.158;2022-10-17T05:55:44;62450.84;;;-140.58;100.00
34177;BME280;20450;49.074;9.158;2022-10-17T05:58:11;62450.84;;;-140.58;100.00
34177;BME280;20450;49.074;9.158;2022-10-17T06:00:56;62450.84;;;-140.58;100.00
34177;BME280;20450;49.074;9.158;2022-10-17T06:03:27;62450.84;;;-140.58;100.00
34177;BME280;20450;49.074;9.158;2022-10-17T06:05:55;62450.84;;;-140.58;100.00
34177;BME280;20450;49.074;9.158;2022-10-17T06:08:22;62450.84;;;-140.58;100.00
34177;BME280;20450;49.074;9.158;2022-10-17T06:10:49;62450.84;;;-140.58;100.00
34177;BME280;20450;49.074;9.158;2022-10-17T06:13:17;62450.84;;;-140.58;100.00
34177;BME280;20450;49.074;9.158;2022-10-17T06:15:48;62450.84;;;-140.58;100.00
34177;BME280;20450;49.074;9.158;2022-10-17T06:18:15;62450.84;;;-140.58;100.00
34177;BME280;20450;49.074;9.158;2022-10-17T06:20:42;62450.84;;;-140.58;100.00
34177;BME280;20450;49.074;9.158;2022-10-17T06:23:14;62450.84;;;-140.58;100.00
34177;BME280;20450;49.074;9.158;2022-10-17T06:26:00;62450.84;;;-140.58;100.00
34177;BME280;20450;49.074;9.158;2022-10-17T06:28:32;62450.84;;;-140.58;100.00
34177;BME280;20450;49.074;9.158;2022-10-17T06:31:03;62450.84;;;-140.58;100.00
34177;BME280;20450;49.074;9.158;2022-10-17T06:33:31;62450.84;;;-140.58;100.00
34177;BME280;20450;49.074;9.158;2022-10-17T06:35:58;62450.84;;;-140.58;100.00
34177;BME280;20450;49.074;9.158;2022-10-17T06:38:27;62450.84;;;-140.58;100.00
34177;BME280;20450;49.074;9.158;2022-10-17T06:41:02;62450.84;;;-140.58;100.00
34177;BME280;20450;49.074;9.158;2022-10-17T06:43:30;62450.84;;;-140.58;100.00
34177;BME280;20450;49.074;9.158;2022-10-17T06:46:26;62450.84;;;-140.58;100.00
34177;BME280;20450;49.074;9.158;2022-10-17T06:48:57;62450.84;;;-140.58;100.00
34177;BME280;20450;49.074;9.158;2022-10-17T06:51:29;62450.84;;;-140.58;100.00
34177;BME280;20450;49.074;9.158;2022-10-17T06:53:58;62450.84;;;-140.58;100.00
34177;BME280;20450;49.074;9.158;2022-10-17T06:56:34;62450.84;;;-140.58;100.00
34177;BME280;20450;49.074;9.158;2022-10-17T06:59:19;62450.84;;;-140.58;100.00
34177;BME280;20450;49.074;9.158;2022-10-17T07:01:51;62450.84;;;-140.58;100.00
34177;BME280;20450;49.074;9.158;2022-10-17T07:04:18;62450.84;;;-140.58;100.00
34177;BME280;20450;49.074;9.158;2022-10-17T07:06:45;62450.84;;;-140.58;100.00
34177;BME280;20450;49.074;9.158;2022-10-17T07:09:19;62450.84;;;-140.58;100.00
34177;BME280;20450;49.074;9.158;2022-10-17T07:11:46;62450.84;;;-140.58;100.00
34177;BME280;20450;49.074;9.158;2022-10-17T07:14:16;62450.84;;;-140.58;100.00
34177;BME280;20450;49.074;9.158;2022-10-17T07:16:44;62450.84;;;-140.58;100.00
34177;BME280;20450;49.074;9.158;2022-10-17T07:19:16;62450.84;;;-140.58;100.00
34177;BME280;20450;49.074;9.158;2022-10-17T07:21:43;62450.84;;;-140.58;100.00
34177;BME280;20450;49.074;9.158;2022-10-17T07:24:11;62450.84;;;-140.58;100.00
34177;BME280;20450;49.074;9.158;2022-10-17T07:26:43;62450.84;;;-140.58;100.00
34177;BME280;20450;49.074;9.158;2022-10-17T07:29:10;62450.84;;;-140.58;100.00
34177;BME280;20450;49.074;9.158;2022-10-17T07:31:44;62450.84;;;-140.58;100.00
34177;BME280;20450;49.074;9.158;2022-10-17T07:34:11;62450.84;;;-140.58;100.00
34177;BME280;20450;49.074;9.158;2022-10-17T07:36:39;62450.84;;;-140.58;100.00
34177;BME280;20450;49.074;9.158;2022-10-17T07:39:06;62450.84;;;-140.58;100.00
34177;BME280;20450;49.074;9.158;2022-10-17T07:41:35;62450.84;;;-140.58;100.00
34177;BME280;20450;49.074;9.158;2022-10-17T07:44:04;62450.84;;;-140.58;100.00
34177;BME280;20450;49.074;9.158;2022-10-17T07:46:36;62450.84;;;-140.58;100.00
34177;BME280;20450;49.074;9.158;2022-10-17T07:49:04;62450.84;;;-140.58;100.00
34177;BME280;20450;49.074;9.158;2022-10-17T07:51:32;62450.84;;;-140.58;100.00
34177;BME280;20450;49.074;9.158;2022-10-17T07:53:59;62450.84;;;-140.58;100.00
34177;BME280;20450;49.074;9.158;2022-10-17T07:56:25;62450.84;;;-140.58;100.00
34177;BME280;20450;49.074;9.158;2022-10-17T07:58:52;62450.84;;;-140.58;100.00
34177;BME280;20450;49.074;9.158;2022-10-17T08:01:20;62450.84;;;-140.58;100.00
34177;BME280;20450;49.074;9.158;2022-10-17T08:03:47;62450.84;;;-140.58;100.00
34177;BME280;20450;49.074;9.158;2022-10-17T08:06:14;62450.84;;;-140.58;100.00
34177;BME280;20450;49.074;9.158;2022-10-17T08:08:42;62450.84;;;-140.58;100.00
34177;BME280;20450;49.074;9.158;2022-10-17T08:11:11;62450.84;;;-140.58;100.00
34177;BME280;20450;49.074;9.158;2022-10-17T08:13:40;62450.84;;;-140.58;100.00
34177;BME280;20450;49.074;9.158;2022-10-17T08:16:10;62450.84;;;-140.58;100.00
34177;BME280;20450;49.074;9.158;2022-10-17T08:18:41;62450.84;;;-140.58;100.00
34177;BME280;20450;49.074;9.158;2022-10-17T08:21:09;62450.84;;;-140.58;100.00
34177;BME280;20450;49.074;9.158;2022-10-17T08:23:37;62450.84;;;-140.58;100.00
34177;BME280;20450;49.074;9.158;2022-10-17T08:26:06;62450.84;;;-140.58;100.00
34177;BME280;20450;49.074;9.158;2022-10-17T08:28:34;62450.84;;;-140.58;100.00
34177;BME280;20450;49.074;9.158;2022-10-17T08:31:03;62450.84;;;-140.58;100.00
34177;BME280;20450;49.074;9.158;2022-10-17T08:33:31;62450.84;;;-140.58;100.00
34177;BME280;20450;49.074;9.158;2022-10-17T08:36:00;62450.84;;;-140.58;100.00
34177;BME280;20450;49.074;9.158;2022-10-17T08:38:28;62450.84;;;-140.58;100.00
34177;BME280;20450;49.074;9.158;2022-10-17T08:41:03;62450.84;;;-140.58;100.00
34177;BME280;20450;49.074;9.158;2022-10-17T08:43:44;62450.84;;;-140.58;100.00
34177;BME280;20450;49.074;9.158;2022-10-17T08:46:28;62450.84;;;-140.58;100.00
34177;BME280;20450;49.074;9.158;2022-10-17T08:48:58;62450.84;;;-140.58;100.00
34177;BME280;20450;49.074;9.158;2022-10-17T08:51:31;62450.84;;;-140.58;100.00
34177;BME280;20450;49.074;9.158;2022-10-17T08:54:07;62450.84;;;-140.58;100.00
34177;BME280;20450;49.074;9.158;2022-10-17T08:56:43;62450.84;;;-140.58;100.00
34177;BME280;20450;49.074;9.158;2022-10-17T08:59:17;62450.84;;;-140.58;100.00
34177;BME280;20450;49.074;9.158;2022-10-17T09:01:53;62450.84;;;-140.58;100.00
34177;BME280;20450;49.074;9.158;2022-10-17T09:04:46;62450.84;;;-140.58;100.00
34177;BME280;20450;49.074;9.158;2022-10-17T09:07:36;62450.84;;;-140.58;100.00
34177;BME280;20450;49.074;9.158;2022-10-17T09:10:14;62450.84;;;-140.58;100.00
34177;BME280;20450;49.074;9.158;2022-10-17T09:12:57;62450.84;;;-140.58;100.00
34177;BME280;20450;49.074;9.158;2022-10-17T09:15:51;62450.84;;;-140.58;100.00
34177;BME280;20450;49.074;9.158;2022-10-17T09:18:31;62450.84;;;-140.58;100.00
34177;BME280;20450;49.074;9.158;2022-10-17T09:21:13;62450.84;;;-140.58;100.00
34177;BME280;20450;49.074;9.158;2022-10-17T09:23:50;62450.84;;;-140.58;100.00
34177;BME280;20450;49.074;9.158;2022-10-17T09:26:35;62450.84;;;-140.58;100.00
34177;BME280;20450;49.074;9.158;2022-10-17T09:29:14;62450.84;;;-140.58;100.00
34177;BME280;20450;49.074;9.158;2022-10-17T09:32:11;62450.84;;;-140.58;100.00
34177;BME280;20450;49.074;9.158;2022-10-17T09:34:45;62450.84;;;-140.58;100.00
34177;BME280;20450;49.074;9.158;2022-10-17T09:37:15;62450.84;;;-140.58;100.00
34177;BME280;20450;49.074;9.158;2022-10-17T09:39:44;62450.84;;;-140.58;100.00
34177;BME280;20450;49.074;9.158;2022-10-17T09:42:19;62450.84;;;-140.58;100.00
34177;BME280;20450;49.074;9.158;2022-10-17T09:44:55;62450.84;;;-140.58;100.00
34177;BME280;20450;49.074;9.158;2022-10-17T09:47:36;62450.84;;;-140.58;100.00
34177;BME280;20450;49.074;9.158;2022-10-17T09:50:23;62450.84;;;-140.58;100.00
34177;BME280;20450;49.074;9.158;2022-10-17T09:54:16;62450.84;;;-140.58;100.00
34177;BME280;20450;49.074;9.158;2022-10-17T09:57:00;62450.84;;;-140.58;100.00
34177;BME280;20450;49.074;9.158;2022-10-17T09:59:33;62450.84;;;-140.58;100.00
34177;BME280;20450;49.074;9.158;2022-10-17T10:02:20;62450.84;;;-140.58;100.00
34177;BME280;20450;49.074;9.158;2022-10-17T10:04:56;62450.84;;;-140.58;100.00
34177;BME280;20450;49.074;9.158;2022-10-17T10:07:33;62450.84;;;-140.58;100.00
34177;BME280;20450;49.074;9.158;2022-10-17T10:10:04;62450.84;;;-140.58;100.00
34177;BME280;20450;49.074;9.158;2022-10-17T10:12:36;62450.84;;;-140.58;100.00
34177;BME280;20450;49.074;9.158;2022-10-17T10:15:30;62450.84;;;-140.58;100.00
34177;BME280;20450;49.074;9.158;2022-10-17T10:18:02;62450.84;;;-140.58;100.00
34177;BME280;20450;49.074;9.158;2022-10-17T10:21:03;62450.84;;;-140.58;100.00
34177;BME280;20450;49.074;9.158;2022-10-17T10:23:36;62450.84;;;-140.58;100.00
34177;BME280;20450;49.074;9.158;2022-10-17T10:26:14;62450.84;;;-140.58;100.00
34177;BME280;20450;49.074;9.158;2022-10-17T10:28:56;62450.84;;;-140.58;100.00
34177;BME280;20450;49.074;9.158;2022-10-17T10:31:29;62450.84;;;-140.58;100.00
34177;BME280;20450;49.074;9.158;2022-10-17T10:34:18;62450.84;;;-140.58;100.00
34177;BME280;20450;49.074;9.158;2022-10-17T10:37:01;62450.84;;;-140.58;100.00
34177;BME280;20450;49.074;9.158;2022-10-17T10:39:42;62450.84;;;-140.58;100.00
34177;BME280;20450;49.074;9.158;2022-10-17T10:42:20;62450.84;;;-140.58;100.00
34177;BME280;20450;49.074;9.158;2022-10-17T10:44:53;62450.84;;;-140.58;100.00
34177;BME280;20450;49.074;9.158;2022-10-17T10:47:25;62450.84;;;-140.58;100.00
34177;BME280;20450;49.074;9.158;2022-10-17T10:50:17;62450.84;;;-140.58;100.00
34177;BME280;20450;49.074;9.158;2022-10-17T10:54:40;100290.06;;;32.97;40.39
34177;BME280;20450;49.074;9.158;2022-10-17T10:57:19;100299.94;;;33.97;39.02
34177;BME280;20450;49.074;9.158;2022-10-17T10:59:57;100285.84;;;33.62;39.29
34177;BME280;20450;49.074;9.158;2022-10-17T11:02:36;100296.78;;;34.38;37.66
34177;BME280;20450;49.074;9.158;2022-10-17T11:05:14;100293.53;;;34.03;38.05
34177;BME280;20450;49.074;9.158;2022-10-17T11:07:53;100282.56;;;34.69;35.89
34177;BME280;20450;49.074;9.158;2022-10-17T11:10:34;100275.63;;;29.75;43.43
34177;BME280;20450;49.074;9.158;2022-10-17T11:13:13;100275.19;;;29.78;45.69
34177;BME280;20450;49.074;9.158;2022-10-17T11:15:49;100274.44;;;31.67;43.15
34177;BME280;20450;49.074;9.158;2022-10-17T11:18:24;100273.03;;;32.96;39.79
34177;BME280;20450;49.074;9.158;2022-10-17T11:20:58;100282.16;;;33.68;39.30
34177;BME280;20450;49.074;9.158;2022-10-17T11:23:37;100277.97;;;34.10;37.89
34177;BME280;20450;49.074;9.158;2022-10-17T11:26:17;100275.84;;;33.46;38.76
34177;BME280;20450;49.074;9.158;2022-10-17T11:28:47;100278.56;;;33.18;39.43
34177;BME280;20450;49.074;9.158;2022-10-17T11:31:15;100272.03;;;33.14;39.20
34177;BME280;20450;49.074;9.158;2022-10-17T11:33:48;100275.19;;;33.39;39.01
34177;BME280;20450;49.074;9.158;2022-10-17T11:36:24;100261.53;;;30.40;44.25
34177;BME280;20450;49.074;9.158;2022-10-17T11:38:57;100256.63;;;29.21;47.00
34177;BME280;20450;49.074;9.158;2022-10-17T11:41:34;100252.94;;;26.57;52.08
34177;BME280;20450;49.074;9.158;2022-10-17T11:44:14;100251.22;;;26.90;52.39
34177;BME280;20450;49.074;9.158;2022-10-17T11:46:57;100255.75;;;25.81;55.17
34177;BME280;20450;49.074;9.158;2022-10-17T11:49:32;100256.19;;;26.52;54.49
34177;BME280;20450;49.074;9.158;2022-10-17T11:52:19;100259.13;;;27.37;53.58
34177;BME280;20450;49.074;9.158;2022-10-17T11:55:19;100262.22;;;27.60;52.47
34177;BME280;20450;49.074;9.158;2022-10-17T11:58:00;100266.09;;;28.16;53.29
34177;BME280;20450;49.074;9.158;2022-10-17T12:00:51;100265.69;;;28.38;51.49
34177;BME280;20450;49.074;9.158;2022-10-17T12:03:39;100258.97;;;28.60;50.91
34177;BME280;20450;49.074;9.158;2022-10-17T12:06:51;100262.09;;;28.57;49.90
34177;BME280;20450;49.074;9.158;2022-10-17T12:09:39;100257.47;;;27.68;50.81
34177;BME280;20450;49.074;9.158;2022-10-17T12:12:23;100254.19;;;27.73;53.09
34177;BME280;20450;49.074;9.158;2022-10-17T12:14:53;100258.91;;;28.10;52.39
34177;BME280;20450;49.074;9.158;2022-10-17T12:17:42;100251.81;;;28.35;52.07
34177;BME280;20450;49.074;9.158;2022-10-17T12:20:28;100260.47;;;28.50;51.59
34177;BME280;20450;49.074;9.158;2022-10-17T12:23:03;100254.69;;;28.46;51.49
34177;BME280;20450;49.074;9.158;2022-10-17T12:25:49;100262.75;;;28.40;51.62
34177;BME280;20450;49.074;9.158;2022-10-17T12:28:24;100260.09;;;28.27;52.33
34177;BME280;20450;49.074;9.158;2022-10-17T12:30:57;100255.97;;;28.31;53.39
34177;BME280;20450;49.074;9.158;2022-10-17T12:33:36;100256.38;;;28.28;52.38
34177;BME280;20450;49.074;9.158;2022-10-17T12:36:43;100257.47;;;28.14;52.60
34177;BME280;20450;49.074;9.158;2022-10-17T12:42:43;100256.66;;;28.07;51.32
34177;BME280;20450;49.074;9.158;2022-10-17T12:45:45;100263.50;;;27.90;53.19
34177;BME280;20450;49.074;9.158;2022-10-17T12:51:26;100259.13;;;27.89;53.57
34177;BME280;20450;49.074;9.158;2022-10-17T12:54:09;100260.78;;;27.44;50.95
34177;BME280;20450;49.074;9.158;2022-10-17T12:56:41;100257.50;;;27.55;50.69
34177;BME280;20450;49.074;9.158;2022-10-17T12:59:14;100255.84;;;27.22;50.57
34177;BME280;20450;49.074;9.158;2022-10-17T13:01:46;100259.53;;;27.27;51.77
34177;BME280;20450;49.074;9.158;2022-10-17T13:04:18;100257.88;;;27.20;50.78
34177;BME280;20450;49.074;9.158;2022-10-17T13:06:48;100261.28;;;26.88;52.61
34177;BME280;20450;49.074;9.158;2022-10-17T13:09:25;100268.50;;;26.94;52.55
34177;BME280;20450;49.074;9.158;2022-10-17T13:11:55;100262.28;;;26.87;52.64
34177;BME280;20450;49.074;9.158;2022-10-17T13:14:26;100270.13;;;26.82;52.70
34177;BME280;20450;49.074;9.158;2022-10-17T13:16:57;100270.13;;;26.82;53.12
34177;BME280;20450;49.074;9.158;2022-10-17T13:19:29;100274.19;;;26.65;52.93
34177;BME280;20450;49.074;9.158;2022-10-17T13:22:12;100274.06;;;26.52;52.08
34177;BME280;20450;49.074;9.158;2022-10-17T13:24:42;100277.72;;;26.38;51.49